Terminal Aerodrome Forecast
Issued by NWS

Home | Current Version | Previous Version | Text Only | Print | Product List | Glossary Off
Versions: 1 2 3 4 5 6 7 8 9 10 11 12 13 14 15 16 17 18 19 20 21 22 23 24 25 26 27 28 29 30 31 32 33 34
000 FTUS41 KBOX 260531 TAFACK TAF KACK 260531Z 2606/2706 10018KT 1SM -SHRA BR OVC002 WS020/14050KT FM261000 13018KT 1SM -SHRA BR OVC003 WS020/16055KT FM261400 13021KT 1 1/2SM -SHRA BR OVC003 WS020/17050KT FM261900 14017KT 1 1/2SM BR VCSH OVC003 FM270200 15009KT 1 1/2SM -DZ BR OVC003=

USA.gov is the U.S. government's official web portal to all federal, state and local government web resources and services.